Time;durP1;ratioP1;P1;durP2;ratioP2;P2;SDS_P1;SDS_P2;PMS_P1;PMS_P2;Temp;Humidity;BMP_temperature;BMP_pressure;BME280_temperature;BME280_humidity;BME280_pressure;Samples;Min_cycle;Max_cycle;Signal;HPM_P1;HPM_P2
2022/06/01 00:00:13;;;;;;;;;7.33;7.00;;;;;19.44;46.10;98179.00;5020488;27;101962;-66
2022/06/01 00:02:40;;;;;;;;;8.33;7.00;;;;;19.43;46.01;98171.00;4996843;27;108743;-66
2022/06/01 00:05:07;;;;;;;;;9.00;8.67;;;;;19.43;46.20;98171.00;4983126;27;102191;-66
2022/06/01 00:07:34;;;;;;;;;9.00;8.33;;;;;19.41;46.16;98165.78;4993332;27;102299;-66
2022/06/01 00:10:02;;;;;;;;;8.67;8.67;;;;;19.41;46.37;98154.81;5012488;27;102249;-66
2022/06/01 00:12:29;;;;;;;;;9.67;8.33;;;;;19.40;45.85;98155.94;4999220;27;104076;-66
2022/06/01 00:14:57;;;;;;;;;9.67;8.00;;;;;19.39;46.11;98151.53;4990076;27;102530;-66
2022/06/01 00:17:24;;;;;;;;;8.00;7.67;;;;;19.39;46.46;98151.53;5015269;27;102342;-66
2022/06/01 00:19:51;;;;;;;;;9.00;8.67;;;;;19.39;46.36;98153.44;5016471;27;102359;-66
2022/06/01 00:22:19;;;;;;;;;7.67;7.33;;;;;19.39;46.14;98159.75;5028725;27;104111;-65
2022/06/01 00:24:46;;;;;;;;;9.33;7.33;;;;;19.40;46.21;98164.16;5023356;27;102717;-66
2022/06/01 00:27:14;;;;;;;;;9.00;8.00;;;;;19.39;46.20;98154.28;5014859;27;102167;-66
2022/06/01 00:29:41;;;;;;;;;7.00;7.00;;;;;19.38;46.05;98158.09;5011886;27;102439;-66
2022/06/01 00:32:11;;;;;;;;;10.00;9.00;;;;;19.40;46.10;98166.91;5010745;27;104073;-66
2022/06/01 00:34:38;;;;;;;;;11.00;9.33;;;;;19.40;45.78;98169.66;5024607;27;102317;-66
2022/06/01 00:37:06;;;;;;;;;9.33;8.00;;;;;19.40;46.02;98166.06;4998841;27;102210;-66
2022/06/01 00:39:33;;;;;;;;;8.67;7.67;;;;;19.39;45.97;98170.72;5022721;27;102976;-66
2022/06/01 00:42:09;;;;;;;;;11.00;9.33;;;;;19.39;46.13;98168.00;5016905;27;104236;-66
2022/06/01 00:44:36;;;;;;;;;9.67;8.33;;;;;19.38;46.27;98166.34;5023858;27;102258;-66
2022/06/01 00:47:03;;;;;;;;;8.67;8.67;;;;;19.39;46.09;98168.00;4998836;27;102186;-66
2022/06/01 00:49:31;;;;;;;;;9.33;8.33;;;;;19.39;46.08;98168.00;5019037;27;104807;-66
2022/06/01 00:51:58;;;;;;;;;10.00;9.67;;;;;19.37;46.12;98170.16;4998899;27;104349;-66
2022/06/01 00:54:26;;;;;;;;;7.67;7.67;;;;;19.38;46.12;98162.75;5020666;27;102665;-66
2022/06/01 00:56:56;;;;;;;;;6.67;6.67;;;;;19.38;46.19;98166.34;5007631;27;102367;-66
2022/06/01 00:59:26;;;;;;;;;6.67;6.67;;;;;19.38;46.22;98162.75;4974263;28;102668;-66
2022/06/01 01:01:53;;;;;;;;;7.67;6.67;;;;;19.39;45.86;98165.25;4982920;27;104290;-65
2022/06/01 01:04:20;;;;;;;;;7.67;7.33;;;;;19.38;46.07;98169.06;4977525;27;102337;-66
2022/06/01 01:06:47;;;;;;;;;11.33;10.33;;;;;19.38;46.03;98173.72;4961613;27;102253;-66
2022/06/01 01:09:14;;;;;;;;;8.67;8.67;;;;;19.40;46.17;98171.56;4953281;27;104167;-66
2022/06/01 01:11:52;;;;;;;;;8.33;7.67;;;;;19.39;46.13;98176.22;4988811;27;104087;-66
2022/06/01 01:14:21;;;;;;;;;8.00;7.67;;;;;19.38;46.21;98163.59;4998027;27;102367;-66
2022/06/01 01:16:48;;;;;;;;;7.67;7.33;;;;;19.37;46.32;98170.16;5001586;27;102728;-66
2022/06/01 01:19:37;;;;;;;;;6.67;6.67;;;;;19.36;46.24;98171.25;5012081;27;104503;-66
2022/06/01 01:22:47;;;;;;;;;7.33;7.33;;;;;19.36;45.97;98176.72;4976884;27;109005;-66
2022/06/01 01:25:22;;;;;;;;;8.67;7.67;;;;;19.36;46.22;98182.22;4986634;27;105059;-66
2022/06/01 01:27:51;;;;;;;;;8.00;7.67;;;;;19.36;46.08;98179.47;5005528;27;102104;-66
2022/06/01 01:30:34;;;;;;;;;7.33;7.33;;;;;19.37;46.10;98183.03;5018502;27;102906;-66
2022/06/01 01:33:17;;;;;;;;;9.00;8.33;;;;;19.35;46.13;98208.00;5009350;27;108837;-66
2022/06/01 01:35:47;;;;;;;;;10.67;8.33;;;;;19.36;46.19;98215.13;5009300;27;108809;-66
2022/06/01 01:38:31;;;;;;;;;8.33;8.33;;;;;19.37;45.98;98218.69;4992965;27;102808;-66
2022/06/01 01:41:25;;;;;;;;;8.00;7.00;;;;;19.37;45.75;98204.97;4992522;27;102730;-66
2022/06/01 01:43:55;;;;;;;;;6.67;6.67;;;;;19.37;46.16;98215.94;5015248;27;109260;-66
2022/06/01 01:46:27;;;;;;;;;8.67;8.67;;;;;19.35;46.14;98213.50;4998523;27;102498;-65
2022/06/01 01:48:55;;;;;;;;;8.00;8.00;;;;;19.35;46.10;98218.16;5002347;27;102091;-66
2022/06/01 01:51:23;;;;;;;;;8.67;8.00;;;;;19.36;46.11;98204.16;5032398;27;102566;-66
2022/06/01 01:53:51;;;;;;;;;7.67;6.67;;;;;19.36;46.17;98203.34;4991742;27;108882;-66
2022/06/01 01:56:25;;;;;;;;;8.67;8.67;;;;;19.36;46.22;98200.59;5013191;27;102241;-66
2022/06/01 01:59:28;;;;;;;;;8.33;8.33;;;;;19.34;45.97;98200.88;4999841;28;102300;-66
2022/06/01 02:01:59;;;;;;;;;8.33;8.00;;;;;19.34;45.84;98198.13;5014538;27;105383;-64
2022/06/01 02:07:43;;;;;;;;;9.00;8.00;;;;;19.33;46.24;98193.72;4989251;27;102325;-66
2022/06/01 02:13:07;;;;;;;;;8.67;7.67;;;;;19.36;46.26;98217.84;4947180;27;102247;-66
2022/06/01 02:15:36;;;;;;;;;9.33;8.67;;;;;19.35;45.97;98213.50;5005315;27;103985;-66
2022/06/01 02:18:08;;;;;;;;;8.33;7.67;;;;;19.35;46.15;98208.00;5021564;27;102392;-66
2022/06/01 02:20:40;;;;;;;;;6.00;6.00;;;;;19.35;46.10;98208.00;5013686;27;102105;-66
2022/06/01 02:23:11;;;;;;;;;8.00;7.67;;;;;19.34;46.35;98211.84;4994568;27;103092;-66
2022/06/01 02:25:38;;;;;;;;;7.00;7.00;;;;;19.35;46.26;98212.66;4983749;28;104015;-66
2022/06/01 02:28:06;;;;;;;;;7.00;6.67;;;;;19.33;46.29;98210.19;5001592;27;102489;-66
2022/06/01 02:30:36;;;;;;;;;7.67;7.67;;;;;19.32;46.46;98208.53;5010021;27;102469;-66
2022/06/01 02:33:04;;;;;;;;;9.67;9.33;;;;;19.34;46.59;98219.22;4989296;28;102376;-66
2022/06/01 02:35:36;;;;;;;;;8.67;7.67;;;;;19.34;46.23;98219.22;5010990;27;104138;-66
2022/06/01 02:38:05;;;;;;;;;8.33;7.67;;;;;19.34;45.92;98220.06;5000371;27;102110;-65
2022/06/01 02:40:32;;;;;;;;;7.67;7.00;;;;;19.34;46.02;98227.44;4978430;27;102210;-66
2022/06/01 02:42:59;;;;;;;;;7.67;7.67;;;;;19.34;46.09;98233.75;5014086;27;102148;-65
2022/06/01 02:45:26;;;;;;;;;7.33;7.33;;;;;19.35;46.15;98245.56;5004502;27;104235;-64
2022/06/01 02:47:55;;;;;;;;;8.00;8.00;;;;;19.33;46.14;98243.06;5029246;27;102101;-66
2022/06/01 02:50:23;;;;;;;;;8.00;7.00;;;;;19.35;46.12;98235.41;5016400;27;102952;-66
2022/06/01 02:52:51;;;;;;;;;8.00;8.00;;;;;19.32;46.20;98221.41;5012035;27;103425;-66
2022/06/01 02:55:18;;;;;;;;;6.67;5.67;;;;;19.34;46.30;98209.09;5020326;27;104120;-66
2022/06/01 02:57:45;;;;;;;;;9.33;7.33;;;;;19.32;46.05;98222.22;5012650;27;102566;-66
2022/06/01 03:00:18;;;;;;;;;9.33;8.00;;;;;19.32;45.99;98219.47;5013620;27;104347;-66
2022/06/01 03:02:47;;;;;;;;;9.00;8.33;;;;;19.32;46.14;98222.22;5020238;27;103015;-66
2022/06/01 03:05:15;;;;;;;;;6.67;6.33;;;;;19.31;46.41;98228.81;5012980;27;104012;-66
2022/06/01 03:07:42;;;;;;;;;7.33;7.00;;;;;19.32;46.25;98230.44;5022143;27;102514;-66
2022/06/01 03:10:12;;;;;;;;;6.67;5.67;;;;;19.34;46.25;98225.53;5018228;27;102129;-66
2022/06/01 03:12:39;;;;;;;;;7.00;7.00;;;;;19.32;46.29;98224.13;5004385;27;102666;-66
2022/06/01 03:15:07;;;;;;;;;7.00;6.33;;;;;19.33;46.10;98228.53;4990356;27;104031;-66
2022/06/01 03:17:34;;;;;;;;;7.00;7.00;;;;;19.33;46.15;98229.38;5022744;27;102145;-66
2022/06/01 03:20:01;;;;;;;;;8.33;7.33;;;;;19.32;46.31;98222.22;5020718;27;103097;-65
2022/06/01 03:22:28;;;;;;;;;6.00;6.00;;;;;19.32;46.20;98224.97;5034658;27;102224;-65
2022/06/01 03:24:55;;;;;;;;;9.67;9.00;;;;;19.32;46.47;98218.66;5027778;27;104057;-66
2022/06/01 03:27:22;;;;;;;;;6.67;6.33;;;;;19.31;46.00;98223.34;5010204;27;102603;-66
2022/06/01 03:29:49;;;;;;;;;8.00;8.00;;;;;19.32;46.19;98229.63;5010214;27;102415;-66
2022/06/01 03:32:16;;;;;;;;;7.00;7.00;;;;;19.31;46.25;98226.09;5001019;27;102179;-66
2022/06/01 03:34:43;;;;;;;;;8.33;6.67;;;;;19.30;46.18;98227.16;5014730;27;104340;-66
2022/06/01 03:37:10;;;;;;;;;6.00;6.00;;;;;19.30;46.11;98237.31;5014404;27;102473;-65
2022/06/01 03:39:37;;;;;;;;;6.67;6.33;;;;;19.31;46.45;98228.81;4999761;27;102327;-66
2022/06/01 03:42:05;;;;;;;;;9.00;7.67;;;;;19.31;46.17;98228.00;5002073;27;102270;-65
2022/06/01 03:47:19;;;;;;;;;7.00;6.00;;;;;19.29;46.19;98241.97;5007166;27;102284;-66
2022/06/01 03:49:46;;;;;;;;;7.00;7.00;;;;;19.30;45.87;98249.09;5000274;27;102608;-66
2022/06/01 03:52:13;;;;;;;;;9.00;7.67;;;;;19.30;46.10;98249.09;5019618;27;102387;-66
2022/06/01 03:54:40;;;;;;;;;5.67;5.67;;;;;19.30;46.43;98257.31;5011829;27;104472;-66
2022/06/01 03:57:07;;;;;;;;;8.00;8.00;;;;;19.31;46.05;98238.97;5026726;27;102062;-66
2022/06/01 03:59:34;;;;;;;;;6.67;6.67;;;;;19.31;46.13;98237.06;5011119;27;103442;-66
2022/06/01 04:02:03;;;;;;;;;6.67;6.67;;;;;19.30;46.13;98231.81;5011907;27;103460;-66
2022/06/01 04:04:31;;;;;;;;;6.00;6.00;;;;;19.30;46.30;98246.34;5003447;27;104045;-65
2022/06/01 04:06:58;;;;;;;;;6.00;6.00;;;;;19.29;46.08;98247.44;5014817;27;108915;-66
2022/06/01 04:09:26;;;;;;;;;6.00;6.00;;;;;19.28;46.20;98247.69;5018067;27;102270;-66
2022/06/01 04:11:53;;;;;;;;;5.67;4.67;;;;;19.27;46.03;98244.16;5003987;27;102698;-66
2022/06/01 04:14:20;;;;;;;;;6.00;6.00;;;;;19.28;46.55;98250.44;4949795;27;104036;-66
2022/06/01 04:16:47;;;;;;;;;3.67;3.67;;;;;19.28;46.37;98264.97;5006408;27;102481;-66
2022/06/01 04:19:15;;;;;;;;;8.00;6.67;;;;;19.29;46.34;98252.94;5009264;27;102105;-66
2022/06/01 04:21:43;;;;;;;;;5.33;5.33;;;;;19.30;46.44;98264.72;5014918;27;102310;-66
2022/06/01 04:24:15;;;;;;;;;5.00;5.00;;;;;19.30;46.24;98265.56;5007043;27;104050;-66
2022/06/01 04:26:42;;;;;;;;;5.67;5.67;;;;;19.31;46.47;98260.91;5009026;27;102507;-66
2022/06/01 04:29:09;;;;;;;;;7.00;7.00;;;;;19.30;46.28;98257.31;5006701;27;102528;-66
2022/06/01 04:31:36;;;;;;;;;6.33;5.67;;;;;19.30;46.27;98254.59;5007073;27;103052;-66
2022/06/01 04:34:04;;;;;;;;;7.00;6.67;;;;;19.28;46.41;98245.78;5005686;27;103839;-65
2022/06/01 04:36:31;;;;;;;;;6.67;5.67;;;;;19.28;46.47;98248.53;5008764;27;102253;-66
2022/06/01 04:38:58;;;;;;;;;6.67;6.33;;;;;19.29;46.54;98247.44;4998604;27;102188;-64
2022/06/01 04:41:25;;;;;;;;;4.67;4.67;;;;;19.30;46.60;98238.13;4997108;28;102249;-66
2022/06/01 04:43:52;;;;;;;;;5.00;4.33;;;;;19.30;46.21;98227.16;5011619;27;104059;-66
2022/06/01 04:46:20;;;;;;;;;6.67;5.33;;;;;19.30;46.04;98220.84;5008516;27;102226;-66
2022/06/01 04:48:49;;;;;;;;;5.67;5.67;;;;;19.27;46.31;98224.97;5015915;27;102113;-66
2022/06/01 04:51:16;;;;;;;;;2.67;2.67;;;;;19.29;46.35;98236.47;5016764;27;103781;-66
2022/06/01 04:53:43;;;;;;;;;8.00;5.67;;;;;19.28;46.08;98240.31;5014072;27;104072;-66
2022/06/01 04:56:11;;;;;;;;;6.33;6.33;;;;;19.29;46.27;98233.72;5008929;27;102233;-66
2022/06/01 04:58:38;;;;;;;;;4.33;4.33;;;;;19.29;46.36;98241.97;5008217;27;102402;-66
2022/06/01 05:01:06;;;;;;;;;6.67;6.67;;;;;19.28;46.48;98245.78;5007546;27;103923;-66
2022/06/01 05:03:33;;;;;;;;;6.33;6.00;;;;;19.28;46.30;98250.44;5003310;27;104145;-66
2022/06/01 05:06:00;;;;;;;;;5.67;5.67;;;;;19.28;46.28;98245.78;5008344;27;104360;-65
2022/06/01 05:08:27;;;;;;;;;5.67;5.33;;;;;19.28;46.38;98240.31;5029803;27;103333;-66
2022/06/01 05:10:54;;;;;;;;;6.33;6.33;;;;;19.28;46.30;98239.47;5000220;27;102663;-66
2022/06/01 05:13:21;;;;;;;;;3.67;3.67;;;;;19.27;46.47;98240.59;5005651;27;104043;-66
2022/06/01 05:15:53;;;;;;;;;5.00;5.00;;;;;19.26;46.55;98237.00;5010652;27;103961;-66
2022/06/01 05:18:20;;;;;;;;;5.67;5.67;;;;;19.28;46.25;98231.25;5012124;27;102797;-66
2022/06/01 05:20:47;;;;;;;;;4.67;4.00;;;;;19.27;46.21;98232.38;5014924;27;102630;-66
2022/06/01 05:23:16;;;;;;;;;4.67;4.67;;;;;19.27;46.23;98233.19;5021518;27;104044;-66
2022/06/01 05:25:44;;;;;;;;;5.67;5.67;;;;;19.27;46.32;98246.91;5016178;27;102500;-66
2022/06/01 05:28:11;;;;;;;;;4.67;4.67;;;;;19.26;46.20;98242.50;5012316;27;102130;-66
2022/06/01 05:30:38;;;;;;;;;4.00;4.00;;;;;19.27;46.33;98238.69;5008602;27;102159;-66
2022/06/01 05:33:05;;;;;;;;;4.00;4.00;;;;;19.28;46.27;98231.25;5006271;27;103913;-66
2022/06/01 05:35:32;;;;;;;;;5.00;5.00;;;;;19.28;46.38;98239.47;5006232;27;102100;-66
2022/06/01 05:38:01;;;;;;;;;5.67;5.67;;;;;19.28;46.39;98245.78;5017984;27;102386;-66
2022/06/01 05:40:30;;;;;;;;;5.33;5.33;;;;;19.28;46.26;98234.81;5028791;27;102234;-66
2022/06/01 05:42:57;;;;;;;;;4.67;4.67;;;;;19.27;46.40;98238.69;5010156;27;108857;-66
2022/06/01 05:45:25;;;;;;;;;5.00;5.00;;;;;19.27;46.36;98249.63;5022077;27;102743;-66
2022/06/01 05:47:52;;;;;;;;;6.33;5.33;;;;;19.27;46.38;98246.91;4992776;27;102076;-66
2022/06/01 05:50:19;;;;;;;;;5.00;5.00;;;;;19.27;46.28;98232.38;5010756;27;102509;-66
2022/06/01 05:52:46;;;;;;;;;4.00;4.00;;;;;19.26;46.45;98242.50;5011095;27;104096;-66
2022/06/01 05:55:13;;;;;;;;;5.33;5.33;;;;;19.26;46.19;98231.53;5015595;27;103087;-66
2022/06/01 05:57:40;;;;;;;;;6.33;5.33;;;;;19.26;46.41;98231.53;5021581;27;102189;-66
2022/06/01 06:00:10;;;;;;;;;4.33;4.33;;;;;19.26;46.31;98250.72;5014151;27;102534;-66
2022/06/01 06:02:38;;;;;;;;;5.33;5.33;;;;;19.26;46.42;98237.00;5005797;27;104065;-66
2022/06/01 06:06:11;;;;;;;;;5.33;4.00;;;;;19.27;46.38;98243.34;5030497;27;102206;-66
2022/06/01 06:07:52;;;;;;;;;5.33;4.67;;;;;19.27;46.28;98238.69;5008196;27;102053;-66
2022/06/01 06:10:20;;;;;;;;;5.67;5.00;;;;;19.27;46.30;98246.91;5009821;27;102292;-66
2022/06/01 06:12:47;;;;;;;;;5.33;4.67;;;;;19.27;46.20;98241.41;5015862;27;104185;-66
2022/06/01 06:15:14;;;;;;;;;5.00;4.67;;;;;19.26;46.30;98231.53;5016063;27;102386;-66
2022/06/01 06:17:41;;;;;;;;;4.33;4.33;;;;;19.26;46.36;98237.00;5019487;27;103012;-66
2022/06/01 06:20:08;;;;;;;;;5.33;5.33;;;;;19.26;46.33;98238.94;5016312;27;102522;-66
2022/06/01 06:22:36;;;;;;;;;6.00;6.00;;;;;19.26;46.46;98247.97;5004791;27;104096;-66
2022/06/01 06:25:03;;;;;;;;;5.67;5.00;;;;;19.26;46.33;98258.94;5021077;27;104971;-66
2022/06/01 06:27:30;;;;;;;;;5.00;4.33;;;;;19.26;46.31;98247.97;5017705;27;103129;-66
2022/06/01 06:29:57;;;;;;;;;5.00;5.00;;;;;19.25;46.43;98245.50;5021821;27;102517;-66
2022/06/01 06:32:25;;;;;;;;;6.67;5.67;;;;;19.26;46.38;98244.41;5012017;27;104030;-66
2022/06/01 06:34:52;;;;;;;;;4.00;4.00;;;;;19.26;46.23;98237.00;5013026;27;102470;-66
2022/06/01 06:37:19;;;;;;;;;5.33;3.67;;;;;19.26;46.55;98242.50;5007351;27;102723;-66
2022/06/01 06:39:46;;;;;;;;;5.00;5.00;;;;;19.27;46.48;98241.41;5017331;27;102488;-66
2022/06/01 06:42:13;;;;;;;;;4.00;4.00;;;;;19.27;46.29;98233.19;5014224;27;104325;-66
2022/06/01 06:44:40;;;;;;;;;6.67;5.00;;;;;19.29;46.48;98246.63;5013487;27;102359;-66
2022/06/01 06:47:07;;;;;;;;;6.00;4.00;;;;;19.27;46.27;98238.69;5014117;27;103867;-66
2022/06/01 06:49:34;;;;;;;;;4.33;4.33;;;;;19.29;46.70;98252.94;5020430;27;102368;-65
2022/06/01 06:52:01;;;;;;;;;3.00;3.00;;;;;19.30;46.40;98253.75;5021373;27;104203;-66
2022/06/01 06:54:28;;;;;;;;;4.67;3.67;;;;;19.30;46.65;98249.09;5016310;27;102421;-66
2022/06/01 06:56:55;;;;;;;;;4.67;4.67;;;;;19.29;46.40;98252.94;5009048;27;102316;-66
2022/06/01 06:59:22;;;;;;;;;5.00;5.00;;;;;19.31;46.44;98258.16;5011358;27;104429;-66
2022/06/01 07:01:49;;;;;;;;;4.67;4.67;;;;;19.32;46.51;98265.25;5002160;27;104045;-66
2022/06/01 07:04:16;;;;;;;;;5.00;4.67;;;;;19.33;46.56;98267.75;5006117;27;103389;-66
2022/06/01 07:06:44;;;;;;;;;4.00;3.67;;;;;19.33;46.66;98273.22;5006718;27;102055;-66
2022/06/01 07:09:11;;;;;;;;;4.67;4.67;;;;;19.33;46.54;98273.22;5001040;27;102120;-66
2022/06/01 07:11:38;;;;;;;;;6.33;5.67;;;;;19.35;46.77;98268.31;5006433;27;108928;-65
2022/06/01 07:14:05;;;;;;;;;5.00;5.00;;;;;19.35;46.42;98271.06;5023695;27;102138;-66
2022/06/01 07:16:33;;;;;;;;;5.00;4.33;;;;;19.36;46.56;98280.13;5014020;27;102659;-66
2022/06/01 07:19:03;;;;;;;;;5.00;5.00;;;;;19.35;46.34;98281.19;5006448;27;102160;-66
2022/06/01 07:21:30;;;;;;;;;2.67;2.33;;;;;19.36;46.46;98282.84;5021441;27;108929;-66
2022/06/01 07:23:59;;;;;;;;;6.00;5.00;;;;;19.37;46.40;98279.00;5017014;27;102369;-66
2022/06/01 07:26:34;;;;;;;;;4.33;4.33;;;;;19.37;46.40;98293.53;5004010;27;102355;-66
2022/06/01 07:29:01;;;;;;;;;4.00;3.67;;;;;19.37;46.31;98285.31;5012895;27;102268;-66
2022/06/01 07:31:28;;;;;;;;;4.00;4.00;;;;;19.39;46.30;98291.38;5004071;27;104093;-66
2022/06/01 07:33:56;;;;;;;;;3.67;3.67;;;;;19.39;46.50;98285.88;5012586;27;102411;-66
2022/06/01 07:36:23;;;;;;;;;4.67;4.67;;;;;19.40;46.48;98295.78;5024907;27;102504;-66
2022/06/01 07:44:49;;;;;;;;;4.33;3.67;;;;;19.42;46.38;98288.09;4968355;28;102756;-66
2022/06/01 07:47:17;;;;;;;;;4.67;4.67;;;;;19.44;46.26;98285.13;4986143;28;102399;-66
2022/06/01 07:50:04;;;;;;;;;2.67;2.67;;;;;19.44;46.13;98282.38;4993387;27;104069;-65
2022/06/01 07:52:51;;;;;;;;;5.67;4.67;;;;;19.43;46.42;98287.03;5005475;27;102743;-66
2022/06/01 07:55:18;;;;;;;;;3.33;3.33;;;;;19.43;46.19;98289.78;5012842;27;102674;-66
2022/06/01 07:57:45;;;;;;;;;4.33;4.33;;;;;19.44;46.29;98287.88;5011339;27;102463;-66
2022/06/01 08:00:13;;;;;;;;;4.67;3.67;;;;;19.44;46.18;98287.88;5008090;27;102372;-66
2022/06/01 08:02:40;;;;;;;;;4.00;4.00;;;;;19.44;46.29;98294.19;5008670;27;104087;-65
2022/06/01 08:05:08;;;;;;;;;6.00;3.67;;;;;19.43;45.86;98284.31;5019460;27;103758;-66
2022/06/01 08:07:35;;;;;;;;;4.33;4.33;;;;;19.45;46.36;98292.28;5019192;27;102330;-66
2022/06/01 08:10:03;;;;;;;;;3.67;3.67;;;;;19.46;46.21;98296.63;5031194;27;102325;-66
2022/06/01 08:15:16;;;;;;;;;3.33;3.33;;;;;19.45;46.15;98290.31;5005760;27;102506;-66
2022/06/01 08:17:51;;;;;;;;;3.67;3.67;;;;;19.46;46.42;98289.25;5023504;27;102162;-66
2022/06/01 08:20:18;;;;;;;;;3.67;3.67;;;;;19.48;46.38;98298.03;5014830;27;102474;-66
2022/06/01 08:22:45;;;;;;;;;4.67;3.67;;;;;19.47;46.39;98296.38;5021085;27;104061;-66
2022/06/01 08:25:13;;;;;;;;;3.33;2.67;;;;;19.48;46.55;98299.94;5016706;27;102242;-66
2022/06/01 08:27:40;;;;;;;;;5.00;4.33;;;;;19.48;46.23;98306.28;5014452;27;102310;-66
2022/06/01 08:30:07;;;;;;;;;5.33;4.00;;;;;19.47;46.31;98293.63;5024886;27;102577;-66
2022/06/01 08:32:34;;;;;;;;;3.67;3.67;;;;;19.49;46.24;98304.34;5025225;27;104025;-65
2022/06/01 08:35:05;;;;;;;;;4.67;3.67;;;;;19.48;46.43;98306.28;5021384;27;102004;-66
2022/06/01 08:37:32;;;;;;;;;4.33;4.33;;;;;19.48;46.40;98311.75;5011585;27;102158;-66
2022/06/01 08:39:59;;;;;;;;;4.00;3.33;;;;;19.50;46.30;98311.47;5014697;27;102171;-66
2022/06/01 08:42:26;;;;;;;;;4.67;3.33;;;;;19.51;46.11;98305.72;5010122;27;104067;-66
2022/06/01 08:44:54;;;;;;;;;4.33;4.00;;;;;19.52;45.92;98312.03;5012204;27;102107;-66
2022/06/01 08:47:29;;;;;;;;;3.33;3.33;;;;;19.52;46.09;98307.38;5011294;27;103302;-66
2022/06/01 08:49:57;;;;;;;;;4.33;4.33;;;;;19.53;46.45;98311.78;5010081;27;103111;-66
2022/06/01 08:52:24;;;;;;;;;2.67;2.67;;;;;19.54;46.16;98312.63;4994898;27;104201;-66
2022/06/01 08:54:51;;;;;;;;;4.67;4.67;;;;;19.54;46.24;98302.44;5016535;27;102026;-66
2022/06/01 08:57:28;;;;;;;;;4.00;3.67;;;;;19.55;46.16;98301.34;5009839;27;102446;-66
2022/06/01 09:00:09;;;;;;;;;4.00;3.67;;;;;19.56;46.07;98307.69;5012758;27;102235;-66
2022/06/01 09:02:39;;;;;;;;;3.67;3.67;;;;;19.57;46.16;98306.59;5006916;27;108916;-66
2022/06/01 09:05:16;;;;;;;;;3.67;3.67;;;;;19.57;46.08;98309.34;5010372;27;102831;-65
2022/06/01 09:07:45;;;;;;;;;2.67;2.67;;;;;19.58;45.99;98300.84;5008723;27;102253;-66
2022/06/01 09:10:35;;;;;;;;;3.33;2.67;;;;;19.58;46.28;98306.34;5013353;27;102357;-66
2022/06/01 09:13:07;;;;;;;;;2.33;1.67;;;;;19.58;46.11;98309.06;5015408;27;109005;-66
2022/06/01 09:15:51;;;;;;;;;5.00;5.00;;;;;19.59;46.32;98316.19;5006683;27;102237;-66
2022/06/01 09:18:20;;;;;;;;;4.33;3.33;;;;;19.62;46.03;98311.28;4994446;27;102473;-66
2022/06/01 09:23:32;;;;;;;;;3.00;3.00;;;;;19.62;46.11;98308.53;5010510;27;108853;-66
2022/06/01 09:25:59;;;;;;;;;5.00;4.00;;;;;19.65;46.29;98305.25;5026785;27;102857;-66
2022/06/01 09:28:27;;;;;;;;;3.67;3.67;;;;;19.65;46.14;98308.81;5019176;27;102155;-66
2022/06/01 09:31:02;;;;;;;;;3.33;3.33;;;;;19.65;46.07;98310.72;5017523;27;104205;-66
2022/06/01 09:33:31;;;;;;;;;2.67;2.67;;;;;19.65;46.00;98306.06;5009742;27;108712;-66
2022/06/01 09:36:27;;;;;;;;;4.00;4.00;;;;;19.66;46.02;98301.41;5012854;27;102362;-66
2022/06/01 09:38:59;;;;;;;;;4.00;3.33;;;;;19.65;46.24;98306.06;5020000;27;102987;-66
2022/06/01 09:41:31;;;;;;;;;5.00;4.00;;;;;19.65;46.19;98314.31;5023248;27;102311;-66
2022/06/01 09:44:07;;;;;;;;;3.33;3.33;;;;;19.66;46.09;98304.16;5001626;27;104082;-66
2022/06/01 09:46:41;;;;;;;;;2.00;1.67;;;;;19.66;46.04;98310.47;5023553;27;101972;-66
2022/06/01 09:49:25;;;;;;;;;2.67;2.67;;;;;19.68;46.05;98316.50;5017877;27;102154;-66
2022/06/01 09:52:00;;;;;;;;;3.00;3.00;;;;;19.69;45.96;98311.84;5012077;27;102318;-66
2022/06/01 09:54:29;;;;;;;;;3.00;3.00;;;;;19.69;46.04;98301.69;5007326;27;103759;-66
2022/06/01 09:56:56;;;;;;;;;4.00;4.00;;;;;19.70;45.99;98319.00;5019938;27;102603;-66
2022/06/01 10:07:48;;;;;;;;;4.00;3.67;;;;;19.71;46.01;98301.44;5005952;27;102644;-66
2022/06/01 10:10:23;;;;;;;;;3.00;3.00;;;;;19.70;45.98;98302.53;5007873;28;102767;-66
2022/06/01 10:12:55;;;;;;;;;4.00;3.67;;;;;19.71;46.36;98302.28;5018241;27;102599;-66
2022/06/01 10:15:28;;;;;;;;;2.67;2.67;;;;;19.70;46.12;98303.38;5015353;27;104375;-66
2022/06/01 10:18:02;;;;;;;;;3.67;3.67;;;;;19.71;46.03;98318.75;5006239;28;102390;-66
2022/06/01 10:20:37;;;;;;;;;3.33;3.00;;;;;19.73;45.91;98307.47;4986621;27;102522;-66
2022/06/01 10:23:09;;;;;;;;;2.67;2.67;;;;;19.73;46.11;98308.31;5009725;27;103249;-66
2022/06/01 10:25:51;;;;;;;;;4.33;3.67;;;;;19.74;46.08;98309.97;5001511;27;108815;-65
2022/06/01 10:28:31;;;;;;;;;4.33;2.67;;;;;19.74;46.08;98300.91;5004369;27;102630;-66
2022/06/01 10:31:32;;;;;;;;;3.67;3.67;;;;;19.75;46.21;98308.06;5003147;27;102002;-65
2022/06/01 10:34:24;;;;;;;;;4.33;3.67;;;;;19.75;46.27;98306.13;5007811;27;102515;-66
2022/06/01 10:37:19;;;;;;;;;3.33;3.33;;;;;19.76;46.09;98317.94;4999184;27;108648;-66
2022/06/01 10:40:00;;;;;;;;;5.00;4.00;;;;;19.76;46.24;98320.69;4988385;27;102233;-66
2022/06/01 10:45:45;;;;;;;;;2.00;2.00;;;;;19.77;46.00;98325.09;5010261;27;102311;-66
2022/06/01 10:48:36;;;;;;;;;2.67;2.67;;;;;19.78;46.17;98329.44;5007183;27;104093;-66
2022/06/01 10:51:10;;;;;;;;;3.67;3.67;;;;;19.78;45.90;98316.56;5027307;27;102319;-66
2022/06/01 10:53:59;;;;;;;;;3.67;3.33;;;;;19.80;45.92;98316.31;5000539;27;102238;-66
2022/06/01 10:56:26;;;;;;;;;4.00;4.00;;;;;19.80;46.20;98313.56;5020646;27;102736;-66
2022/06/01 10:58:56;;;;;;;;;2.67;2.67;;;;;19.81;46.03;98309.72;5003563;27;104239;-66
2022/06/01 11:01:35;;;;;;;;;4.33;2.67;;;;;19.81;46.06;98316.03;4999917;27;102005;-66
2022/06/01 11:04:34;;;;;;;;;3.67;3.67;;;;;19.82;46.19;98320.41;5012415;27;102124;-66
2022/06/01 11:07:23;;;;;;;;;2.33;2.00;;;;;19.83;46.04;98307.53;5012583;27;102449;-66
2022/06/01 11:10:00;;;;;;;;;2.00;2.00;;;;;19.83;46.01;98322.09;4999598;27;108741;-66
2022/06/01 11:13:03;;;;;;;;;3.00;2.67;;;;;19.83;46.01;98315.75;5017464;27;102236;-66
2022/06/01 11:15:35;;;;;;;;;2.67;2.67;;;;;19.83;45.86;98313.03;5021167;27;102190;-66
2022/06/01 11:18:12;;;;;;;;;3.33;2.67;;;;;19.83;45.77;98318.50;5012165;27;102162;-66
2022/06/01 11:20:58;;;;;;;;;3.67;2.33;;;;;19.83;46.12;98324.00;4972712;27;108988;-66
2022/06/01 11:23:52;;;;;;;;;3.00;3.00;;;;;19.82;45.93;98328.66;5014844;27;102010;-66
2022/06/01 11:26:46;;;;;;;;;4.00;4.00;;;;;19.82;46.08;98323.16;5010509;27;102293;-66
2022/06/01 11:29:44;;;;;;;;;3.00;3.00;;;;;19.83;46.09;98340.47;4999470;27;102296;-66
2022/06/01 11:32:20;;;;;;;;;2.00;2.00;;;;;19.83;45.95;98333.06;5010641;27;107920;-66
2022/06/01 11:35:03;;;;;;;;;2.00;1.67;;;;;19.83;46.28;98334.97;5010889;27;102460;-66
2022/06/01 11:37:45;;;;;;;;;2.67;2.67;;;;;19.83;45.95;98335.81;5013030;27;102210;-66
2022/06/01 11:40:41;;;;;;;;;2.33;1.67;;;;;19.81;46.30;98329.75;5004799;27;102211;-66
2022/06/01 11:43:27;;;;;;;;;3.00;2.67;;;;;19.82;46.21;98344.28;5007693;27;108978;-66
2022/06/01 11:46:17;;;;;;;;;2.67;2.67;;;;;19.82;46.20;98336.06;4999765;27;102703;-66
2022/06/01 11:48:59;;;;;;;;;4.00;2.67;;;;;19.82;46.28;98347.84;5002305;27;103186;-66
2022/06/01 11:51:38;;;;;;;;;1.67;1.67;;;;;19.82;46.10;98339.63;4990003;27;102519;-66
2022/06/01 11:54:14;;;;;;;;;2.67;2.67;;;;;19.82;46.30;98345.13;5005835;27;108943;-66
2022/06/01 11:56:51;;;;;;;;;2.67;2.67;;;;;19.81;46.26;98348.94;4995150;27;102143;-66
2022/06/01 11:59:30;;;;;;;;;3.33;3.33;;;;;19.83;46.31;98338.53;5007032;27;102024;-66
2022/06/01 12:02:01;;;;;;;;;2.00;2.00;;;;;19.83;46.09;98334.97;4997088;27;104016;-66
2022/06/01 12:04:34;;;;;;;;;3.33;3.00;;;;;19.85;46.15;98327.31;5007812;27;104119;-66
2022/06/01 12:07:09;;;;;;;;;2.33;2.33;;;;;19.87;46.19;98341.56;5012940;27;102531;-66
2022/06/01 12:09:48;;;;;;;;;2.33;2.33;;;;;19.87;46.27;98330.59;5010721;27;102593;-66
2022/06/01 12:12:36;;;;;;;;;2.67;2.67;;;;;19.88;46.07;98333.09;5011091;27;102591;-66
2022/06/01 12:15:04;;;;;;;;;3.33;3.33;;;;;19.88;46.09;98340.47;5006960;27;109272;-66